Time;durP1;ratioP1;P1;durP2;ratioP2;P2;SDS_P1;SDS_P2;PMS_P1;PMS_P2;Temp;Humidity;BMP_temperature;BMP_pressure;BME280_temperature;BME280_humidity;BME280_pressure;Samples;Min_cycle;Max_cycle;Signal;HPM_P1;HPM_P2
2023/05/26 00:01:36;;;;;;;5.55;4.25;;;;;;;;;;5042767;28;20294;-64
2023/05/26 00:04:03;;;;;;;6.88;4.57;;;;;;;;;;5048644;28;20224;-64
2023/05/26 00:06:31;;;;;;;6.20;4.43;;;;;;;;;;5047534;28;20206;-64
2023/05/26 00:08:59;;;;;;;11.02;4.97;;;;;;;;;;5049013;28;20207;-65
2023/05/26 00:11:28;;;;;;;7.28;4.97;;;;;;;;;;5046868;28;20204;-64
2023/05/26 00:13:56;;;;;;;6.82;4.95;;;;;;;;;;5043852;28;20200;-64
2023/05/26 00:16:23;;;;;;;6.25;4.97;;;;;;;;;;5048493;28;20215;-64
2023/05/26 00:18:50;;;;;;;6.13;4.38;;;;;;;;;;5045464;28;20199;-64
2023/05/26 00:21:17;;;;;;;7.68;4.75;;;;;;;;;;5049444;28;20227;-65
2023/05/26 00:23:44;;;;;;;8.15;4.68;;;;;;;;;;5048947;28;20207;-65
2023/05/26 00:26:13;;;;;;;7.93;5.07;;;;;;;;;;5046326;28;20214;-65
2023/05/26 00:28:40;;;;;;;6.63;4.57;;;;;;;;;;5044439;28;20199;-65
2023/05/26 00:31:07;;;;;;;6.97;4.70;;;;;;;;;;5048109;28;20369;-65
2023/05/26 00:33:34;;;;;;;6.00;4.28;;;;;;;;;;5046658;28;20199;-65
2023/05/26 00:36:01;;;;;;;6.35;4.43;;;;;;;;;;5044966;28;20210;-65
2023/05/26 00:38:28;;;;;;;6.20;4.55;;;;;;;;;;5047767;28;20208;-64
2023/05/26 00:40:56;;;;;;;7.70;5.05;;;;;;;;;;5050653;28;20210;-64
2023/05/26 00:43:24;;;;;;;7.03;4.65;;;;;;;;;;5047132;28;20203;-65
2023/05/26 00:45:51;;;;;;;7.70;4.75;;;;;;;;;;5048391;28;20215;-65
2023/05/26 00:48:18;;;;;;;8.48;4.63;;;;;;;;;;5047771;28;20215;-65
2023/05/26 00:50:45;;;;;;;6.43;4.53;;;;;;;;;;5047586;28;20203;-64
2023/05/26 00:53:12;;;;;;;7.47;4.60;;;;;;;;;;5049943;28;20212;-64
2023/05/26 00:55:40;;;;;;;9.68;5.30;;;;;;;;;;5049916;28;20214;-64
2023/05/26 00:58:08;;;;;;;5.78;4.85;;;;;;;;;;5048871;28;20207;-64
2023/05/26 01:00:37;;;;;;;6.90;4.60;;;;;;;;;;5049473;28;20195;-65
2023/05/26 01:03:05;;;;;;;6.25;4.78;;;;;;;;;;5046783;28;20202;-65
2023/05/26 01:05:33;;;;;;;5.78;4.60;;;;;;;;;;5048090;28;20292;-65
2023/05/26 01:08:01;;;;;;;7.33;5.07;;;;;;;;;;5049133;28;20202;-65
2023/05/26 01:10:31;;;;;;;7.47;4.93;;;;;;;;;;5046752;28;20265;-65
2023/05/26 01:13:01;;;;;;;7.70;5.00;;;;;;;;;;5051200;28;20295;-65
2023/05/26 01:15:31;;;;;;;6.35;4.72;;;;;;;;;;5049440;28;20211;-65
2023/05/26 01:18:05;;;;;;;6.95;5.03;;;;;;;;;;5047905;28;20210;-65
2023/05/26 01:20:34;;;;;;;6.60;4.68;;;;;;;;;;5050214;28;20205;-65
2023/05/26 01:23:32;;;;;;;6.88;4.53;;;;;;;;;;5048323;28;20203;-65
2023/05/26 01:26:12;;;;;;;7.55;4.75;;;;;;;;;;4978819;28;20202;-65
2023/05/26 01:28:42;;;;;;;7.75;4.70;;;;;;;;;;5042136;28;20203;-65
2023/05/26 01:31:10;;;;;;;7.80;5.18;;;;;;;;;;5045781;28;20214;-65
2023/05/26 01:33:37;;;;;;;7.55;4.65;;;;;;;;;;5048965;28;20215;-65
2023/05/26 01:36:04;;;;;;;8.40;4.70;;;;;;;;;;5045240;28;20211;-65
2023/05/26 01:38:32;;;;;;;5.93;4.68;;;;;;;;;;5047625;28;20215;-65
2023/05/26 01:41:03;;;;;;;9.90;5.32;;;;;;;;;;5049135;28;20196;-65
2023/05/26 01:43:33;;;;;;;7.72;5.38;;;;;;;;;;5045183;28;20199;-65
2023/05/26 01:46:04;;;;;;;7.05;5.10;;;;;;;;;;5045604;28;20206;-65
2023/05/26 01:48:32;;;;;;;7.13;5.00;;;;;;;;;;5046762;28;20207;-65
2023/05/26 01:51:00;;;;;;;6.03;4.90;;;;;;;;;;5047559;28;20216;-65
2023/05/26 01:53:28;;;;;;;7.47;5.18;;;;;;;;;;5045083;28;20211;-65
2023/05/26 01:55:57;;;;;;;7.20;4.72;;;;;;;;;;5049635;28;20195;-65
2023/05/26 01:58:25;;;;;;;6.05;5.03;;;;;;;;;;5050050;28;20200;-65
2023/05/26 02:00:52;;;;;;;8.00;5.23;;;;;;;;;;5046095;28;20223;-65
2023/05/26 02:03:21;;;;;;;7.13;5.03;;;;;;;;;;5046202;28;20215;-65
2023/05/26 02:05:48;;;;;;;7.82;4.80;;;;;;;;;;5049928;28;20215;-65
2023/05/26 02:08:15;;;;;;;5.35;4.80;;;;;;;;;;5048571;28;20210;-65
2023/05/26 02:10:42;;;;;;;8.90;4.90;;;;;;;;;;5046722;28;20203;-65
2023/05/26 02:13:10;;;;;;;6.93;4.93;;;;;;;;;;5046567;28;20207;-65
2023/05/26 02:15:37;;;;;;;7.25;5.20;;;;;;;;;;5049817;28;20290;-65
2023/05/26 02:18:04;;;;;;;6.45;4.78;;;;;;;;;;5050445;28;20203;-65
2023/05/26 02:20:33;;;;;;;6.23;5.10;;;;;;;;;;5048089;28;20195;-65
2023/05/26 02:23:00;;;;;;;8.98;5.28;;;;;;;;;;5050623;28;20204;-65
2023/05/26 02:25:27;;;;;;;7.45;5.20;;;;;;;;;;5045173;28;20219;-65
2023/05/26 02:27:54;;;;;;;7.78;5.32;;;;;;;;;;5046601;28;20210;-65
2023/05/26 02:30:21;;;;;;;7.82;5.07;;;;;;;;;;5048833;28;20216;-65
2023/05/26 02:32:48;;;;;;;7.95;5.45;;;;;;;;;;5042131;28;20211;-65
2023/05/26 02:35:15;;;;;;;6.88;4.88;;;;;;;;;;5048345;28;20196;-65
2023/05/26 02:37:45;;;;;;;6.97;5.32;;;;;;;;;;5050030;28;20286;-65
2023/05/26 02:40:12;;;;;;;8.02;5.45;;;;;;;;;;5047325;28;20294;-65
2023/05/26 02:42:39;;;;;;;7.82;5.65;;;;;;;;;;5050204;28;20204;-65
2023/05/26 02:45:07;;;;;;;7.37;5.60;;;;;;;;;;5047569;28;20231;-65
2023/05/26 02:47:34;;;;;;;8.40;5.80;;;;;;;;;;5050458;28;20203;-65
2023/05/26 02:50:01;;;;;;;7.60;5.25;;;;;;;;;;5049636;28;20233;-65
2023/05/26 02:52:28;;;;;;;6.53;5.32;;;;;;;;;;5047685;28;20200;-65
2023/05/26 02:54:57;;;;;;;8.17;5.30;;;;;;;;;;5046836;28;20200;-65
2023/05/26 02:57:24;;;;;;;8.73;6.27;;;;;;;;;;5049644;28;20219;-65
2023/05/26 02:59:51;;;;;;;6.93;5.53;;;;;;;;;;5048441;28;20284;-65
2023/05/26 03:02:18;;;;;;;11.20;6.03;;;;;;;;;;5050009;28;20200;-65
2023/05/26 03:04:45;;;;;;;7.90;4.87;;;;;;;;;;5050763;28;20219;-65
2023/05/26 03:07:12;;;;;;;9.43;5.60;;;;;;;;;;5051298;28;20203;-65
2023/05/26 03:09:39;;;;;;;7.00;5.50;;;;;;;;;;5047765;28;20217;-65
2023/05/26 03:12:08;;;;;;;11.27;6.03;;;;;;;;;;5050159;28;20204;-65
2023/05/26 03:14:36;;;;;;;8.27;5.33;;;;;;;;;;5046487;28;20196;-65
2023/05/26 03:17:03;;;;;;;7.13;5.33;;;;;;;;;;5049250;28;20196;-65
2023/05/26 03:19:30;;;;;;;7.67;5.37;;;;;;;;;;5050497;28;20199;-65
2023/05/26 03:21:57;;;;;;;7.00;5.40;;;;;;;;;;5053029;28;20254;-65
2023/05/26 03:24:25;;;;;;;8.97;6.33;;;;;;;;;;5052396;28;20231;-65
2023/05/26 03:26:52;;;;;;;9.03;5.90;;;;;;;;;;5045456;28;20204;-65
2023/05/26 03:29:21;;;;;;;8.50;6.00;;;;;;;;;;5049893;28;20203;-65
2023/05/26 03:31:48;;;;;;;9.43;5.53;;;;;;;;;;5052985;28;20199;-65
2023/05/26 03:34:15;;;;;;;7.00;5.63;;;;;;;;;;5048995;28;20207;-65
2023/05/26 03:36:45;;;;;;;7.73;5.70;;;;;;;;;;5052940;28;20295;-65
2023/05/26 03:39:12;;;;;;;9.47;6.17;;;;;;;;;;5051718;28;20204;-65
2023/05/26 03:41:39;;;;;;;9.40;6.10;;;;;;;;;;5052139;28;20215;-65
2023/05/26 03:44:06;;;;;;;7.10;5.60;;;;;;;;;;5051208;28;20203;-65
2023/05/26 03:46:35;;;;;;;8.97;6.10;;;;;;;;;;5048295;28;20220;-65
2023/05/26 03:49:02;;;;;;;7.27;5.50;;;;;;;;;;5050613;28;20211;-65
2023/05/26 03:51:30;;;;;;;8.57;5.70;;;;;;;;;;5052140;28;20199;-65
2023/05/26 03:53:57;;;;;;;9.63;6.33;;;;;;;;;;5046558;28;20257;-65
2023/05/26 03:56:25;;;;;;;8.57;5.90;;;;;;;;;;5051512;28;20214;-65
2023/05/26 03:58:52;;;;;;;9.47;6.07;;;;;;;;;;5047839;28;20207;-65
2023/05/26 04:01:20;;;;;;;6.13;5.40;;;;;;;;;;5051571;28;20207;-65
2023/05/26 04:03:48;;;;;;;7.70;5.83;;;;;;;;;;5047305;28;20199;-65
2023/05/26 04:06:15;;;;;;;12.63;6.00;;;;;;;;;;5050171;28;20234;-65
2023/05/26 04:08:42;;;;;;;6.40;5.80;;;;;;;;;;5047640;28;20211;-65
2023/05/26 04:11:10;;;;;;;10.33;6.40;;;;;;;;;;5047110;28;20204;-65
2023/05/26 04:13:38;;;;;;;8.07;6.00;;;;;;;;;;5043162;28;20203;-65
2023/05/26 04:16:05;;;;;;;11.93;6.10;;;;;;;;;;5049018;28;20283;-65
2023/05/26 04:18:32;;;;;;;8.20;5.87;;;;;;;;;;5043589;28;20196;-65
2023/05/26 04:21:01;;;;;;;8.03;6.17;;;;;;;;;;5048121;28;20227;-65
2023/05/26 04:23:28;;;;;;;8.57;5.93;;;;;;;;;;5047047;28;20207;-65
2023/05/26 04:25:56;;;;;;;8.83;6.20;;;;;;;;;;5046577;28;20227;-65
2023/05/26 04:28:24;;;;;;;8.10;5.70;;;;;;;;;;5047986;28;20229;-65
2023/05/26 04:30:51;;;;;;;10.00;5.97;;;;;;;;;;5045579;28;20208;-65
2023/05/26 04:33:20;;;;;;;9.27;6.10;;;;;;;;;;5048176;28;20263;-66
2023/05/26 04:35:47;;;;;;;7.20;5.53;;;;;;;;;;5045373;28;20230;-65
2023/05/26 04:38:16;;;;;;;11.23;6.40;;;;;;;;;;5044229;28;20238;-65
2023/05/26 04:40:44;;;;;;;8.33;5.83;;;;;;;;;;5044499;28;20263;-65
2023/05/26 04:43:11;;;;;;;8.67;6.00;;;;;;;;;;5044425;28;20211;-65
2023/05/26 04:45:40;;;;;;;9.50;5.77;;;;;;;;;;5039099;28;20224;-65
2023/05/26 04:48:08;;;;;;;10.70;6.47;;;;;;;;;;5046453;28;20204;-65
2023/05/26 04:50:38;;;;;;;8.20;5.67;;;;;;;;;;5046405;28;20200;-65
2023/05/26 04:53:05;;;;;;;12.13;6.33;;;;;;;;;;5046042;28;20294;-65
2023/05/26 04:55:35;;;;;;;7.97;5.90;;;;;;;;;;5051546;28;20211;-65
2023/05/26 04:58:03;;;;;;;9.67;5.60;;;;;;;;;;5055041;28;20207;-65
2023/05/26 05:00:31;;;;;;;8.40;6.13;;;;;;;;;;5051456;28;20209;-65
2023/05/26 05:02:59;;;;;;;9.73;5.80;;;;;;;;;;5051029;28;20245;-65
2023/05/26 05:05:26;;;;;;;9.80;5.73;;;;;;;;;;5051000;28;20227;-65
2023/05/26 05:07:53;;;;;;;6.97;5.40;;;;;;;;;;5046426;28;20207;-65
2023/05/26 05:10:20;;;;;;;8.03;5.63;;;;;;;;;;5047056;28;20209;-64
2023/05/26 05:12:49;;;;;;;9.07;5.60;;;;;;;;;;5043110;28;20207;-64
2023/05/26 05:15:18;;;;;;;8.40;5.70;;;;;;;;;;5049785;28;20344;-64
2023/05/26 05:17:46;;;;;;;7.00;5.07;;;;;;;;;;5049736;28;20290;-64
2023/05/26 05:20:13;;;;;;;8.27;5.47;;;;;;;;;;5049880;28;20203;-64
2023/05/26 05:22:40;;;;;;;9.67;5.70;;;;;;;;;;5049390;28;20230;-64
2023/05/26 05:25:07;;;;;;;7.77;5.03;;;;;;;;;;5045161;28;20231;-64
2023/05/26 05:27:35;;;;;;;10.10;5.80;;;;;;;;;;5047426;28;20199;-64
2023/05/26 05:30:03;;;;;;;6.47;5.27;;;;;;;;;;5047371;28;20199;-63
2023/05/26 05:32:31;;;;;;;8.10;5.33;;;;;;;;;;5039503;28;20211;-63
2023/05/26 05:34:58;;;;;;;9.17;5.47;;;;;;;;;;5045909;28;20230;-63
2023/05/26 05:37:26;;;;;;;10.13;5.87;;;;;;;;;;5043632;28;20211;-63
2023/05/26 05:39:53;;;;;;;11.20;5.57;;;;;;;;;;5044549;28;20212;-63
2023/05/26 05:42:22;;;;;;;8.00;5.53;;;;;;;;;;5044937;28;20199;-63
2023/05/26 05:44:49;;;;;;;10.00;5.00;;;;;;;;;;5041567;28;20207;-64
2023/05/26 05:47:17;;;;;;;9.17;5.40;;;;;;;;;;5047426;28;20208;-63
2023/05/26 05:49:45;;;;;;;7.83;5.33;;;;;;;;;;5044425;28;20199;-63
2023/05/26 05:52:13;;;;;;;8.80;5.63;;;;;;;;;;5046780;28;20199;-63
2023/05/26 05:54:40;;;;;;;7.07;5.28;;;;;;;;;;5048668;28;20206;-63
2023/05/26 05:57:07;;;;;;;7.70;5.05;;;;;;;;;;5050498;28;20207;-63
2023/05/26 05:59:34;;;;;;;8.68;5.32;;;;;;;;;;5050100;28;20199;-63
2023/05/26 06:02:02;;;;;;;8.77;5.38;;;;;;;;;;5046980;28;20211;-63
2023/05/26 06:04:30;;;;;;;9.63;5.32;;;;;;;;;;5043867;28;20200;-62
2023/05/26 06:06:57;;;;;;;8.70;5.60;;;;;;;;;;5045717;28;20231;-62
2023/05/26 06:09:24;;;;;;;7.82;5.15;;;;;;;;;;5051687;28;20217;-62
2023/05/26 06:11:52;;;;;;;9.02;5.22;;;;;;;;;;5049054;28;20207;-63
2023/05/26 06:14:19;;;;;;;11.13;5.85;;;;;;;;;;5051296;28;20204;-62
2023/05/26 06:16:46;;;;;;;9.70;5.05;;;;;;;;;;5051144;28;20204;-62
2023/05/26 06:19:14;;;;;;;9.05;5.10;;;;;;;;;;5031720;28;20211;-63
2023/05/26 06:21:43;;;;;;;9.02;5.00;;;;;;;;;;5047384;28;20246;-63
2023/05/26 06:24:10;;;;;;;8.57;4.93;;;;;;;;;;5044028;28;20200;-62
2023/05/26 06:26:37;;;;;;;10.13;5.10;;;;;;;;;;5045869;28;20223;-62
2023/05/26 06:29:04;;;;;;;9.10;4.75;;;;;;;;;;5046491;28;20229;-62
2023/05/26 06:31:32;;;;;;;8.75;5.25;;;;;;;;;;5044639;28;20219;-62
2023/05/26 06:33:59;;;;;;;10.02;5.60;;;;;;;;;;5043877;28;20211;-62
2023/05/26 06:36:26;;;;;;;8.85;4.60;;;;;;;;;;5043827;28;20199;-62
2023/05/26 06:38:54;;;;;;;8.20;4.82;;;;;;;;;;5047696;28;20214;-63
2023/05/26 06:41:21;;;;;;;8.13;4.68;;;;;;;;;;5045924;28;20207;-62
2023/05/26 06:43:48;;;;;;;12.25;5.47;;;;;;;;;;5050076;28;20210;-62
2023/05/26 06:46:15;;;;;;;8.73;4.60;;;;;;;;;;5048678;28;20234;-62
2023/05/26 06:48:42;;;;;;;8.80;5.00;;;;;;;;;;5051448;28;20207;-62
2023/05/26 06:51:10;;;;;;;8.90;4.82;;;;;;;;;;5051821;28;20210;-62
2023/05/26 06:53:38;;;;;;;9.80;5.00;;;;;;;;;;5046350;28;20195;-62
2023/05/26 06:56:07;;;;;;;11.25;4.60;;;;;;;;;;5046646;28;20294;-63
2023/05/26 06:58:34;;;;;;;9.63;4.78;;;;;;;;;;5042758;28;20214;-62
2023/05/26 07:01:02;;;;;;;9.20;5.18;;;;;;;;;;5044019;28;20204;-63
2023/05/26 07:03:30;;;;;;;10.20;4.55;;;;;;;;;;5045830;28;20204;-63
2023/05/26 07:05:58;;;;;;;8.55;4.35;;;;;;;;;;5042479;28;20230;-63
2023/05/26 07:08:26;;;;;;;9.57;4.25;;;;;;;;;;5046793;28;20234;-63
2023/05/26 07:10:53;;;;;;;8.45;4.13;;;;;;;;;;5045754;28;20212;-64
2023/05/26 07:13:22;;;;;;;8.48;4.55;;;;;;;;;;5053969;28;20200;-64
2023/05/26 07:15:49;;;;;;;9.48;5.10;;;;;;;;;;5050641;28;20200;-62
2023/05/26 07:18:16;;;;;;;10.23;4.78;;;;;;;;;;5053818;28;20204;-62
2023/05/26 07:20:43;;;;;;;8.82;5.00;;;;;;;;;;5054209;28;20215;-62
2023/05/26 07:23:10;;;;;;;9.05;4.22;;;;;;;;;;5051181;28;20298;-63
2023/05/26 07:25:37;;;;;;;9.70;4.93;;;;;;;;;;5054201;28;20207;-63
2023/05/26 07:28:04;;;;;;;9.95;4.82;;;;;;;;;;5053887;28;20210;-64
2023/05/26 07:30:33;;;;;;;10.88;5.15;;;;;;;;;;5054293;28;20199;-64
2023/05/26 07:33:00;;;;;;;7.90;3.78;;;;;;;;;;5053980;28;20207;-64
2023/05/26 07:35:27;;;;;;;9.57;4.40;;;;;;;;;;5053717;28;20211;-64
2023/05/26 07:37:54;;;;;;;7.18;4.25;;;;;;;;;;5053689;28;20199;-63
2023/05/26 07:40:21;;;;;;;8.05;4.10;;;;;;;;;;5053140;28;20208;-63
2023/05/26 07:42:48;;;;;;;9.05;4.47;;;;;;;;;;5053806;28;20211;-63
2023/05/26 07:45:17;;;;;;;7.57;5.07;;;;;;;;;;5053813;28;20206;-64
2023/05/26 07:47:45;;;;;;;8.68;4.35;;;;;;;;;;5053726;28;20227;-64
2023/05/26 07:50:13;;;;;;;10.98;4.97;;;;;;;;;;5053003;28;20238;-64
2023/05/26 07:52:40;;;;;;;9.18;4.43;;;;;;;;;;5048414;28;20208;-65
2023/05/26 07:55:08;;;;;;;9.32;4.28;;;;;;;;;;5053067;28;20204;-65
2023/05/26 07:57:35;;;;;;;9.10;4.55;;;;;;;;;;5054041;28;20199;-65
2023/05/26 08:00:03;;;;;;;8.20;4.13;;;;;;;;;;5053705;28;20207;-65
2023/05/26 08:02:30;;;;;;;8.35;4.75;;;;;;;;;;5051878;28;20241;-64
2023/05/26 08:04:58;;;;;;;7.78;3.95;;;;;;;;;;5050638;28;20215;-64
2023/05/26 08:07:26;;;;;;;9.20;4.78;;;;;;;;;;5051570;28;20249;-64
2023/05/26 08:09:53;;;;;;;7.03;3.90;;;;;;;;;;5042517;28;20199;-64
2023/05/26 08:12:20;;;;;;;12.18;4.75;;;;;;;;;;5047926;28;20225;-64
2023/05/26 08:14:47;;;;;;;8.52;4.38;;;;;;;;;;5051975;28;20206;-64
2023/05/26 08:17:14;;;;;;;11.05;4.63;;;;;;;;;;5049208;28;20199;-65
2023/05/26 08:19:41;;;;;;;8.38;4.32;;;;;;;;;;5052715;28;20294;-63
2023/05/26 08:22:10;;;;;;;9.18;4.20;;;;;;;;;;5047817;28;20231;-65
2023/05/26 08:24:39;;;;;;;9.63;4.28;;;;;;;;;;5047515;28;20207;-65
2023/05/26 08:27:07;;;;;;;7.78;4.50;;;;;;;;;;5042749;28;20223;-64
2023/05/26 08:29:35;;;;;;;9.02;4.30;;;;;;;;;;5049112;28;20200;-65
2023/05/26 08:32:02;;;;;;;9.57;4.43;;;;;;;;;;5048732;28;20235;-64
2023/05/26 08:34:29;;;;;;;7.70;4.10;;;;;;;;;;5052382;28;20214;-64
2023/05/26 08:36:56;;;;;;;9.32;4.53;;;;;;;;;;5045734;28;20199;-62
2023/05/26 08:39:25;;;;;;;6.95;3.70;;;;;;;;;;5050680;28;20211;-64
2023/05/26 08:41:53;;;;;;;8.77;4.60;;;;;;;;;;5041712;28;20194;-66
2023/05/26 08:44:20;;;;;;;6.38;4.10;;;;;;;;;;5044729;28;20211;-66
2023/05/26 08:46:55;;;;;;;9.48;4.38;;;;;;;;;;5041235;28;20219;-67
2023/05/26 08:49:22;;;;;;;8.27;4.15;;;;;;;;;;5045479;28;20232;-64
2023/05/26 08:51:53;;;;;;;9.95;4.20;;;;;;;;;;5039827;28;20196;-64
2023/05/26 08:54:20;;;;;;;8.43;3.95;;;;;;;;;;5044119;28;20210;-67
2023/05/26 08:56:49;;;;;;;7.45;4.30;;;;;;;;;;5040768;28;20208;-67
2023/05/26 08:59:17;;;;;;;8.13;4.05;;;;;;;;;;5044467;28;20204;-63
2023/05/26 09:01:44;;;;;;;9.45;4.32;;;;;;;;;;5044439;28;20211;-64
2023/05/26 09:04:11;;;;;;;9.27;4.65;;;;;;;;;;5047259;28;20208;-62
2023/05/26 09:06:42;;;;;;;9.02;4.10;;;;;;;;;;5046022;28;20219;-64
2023/05/26 09:09:09;;;;;;;8.05;4.28;;;;;;;;;;5044382;28;20195;-64
2023/05/26 09:11:41;;;;;;;9.50;4.20;;;;;;;;;;5045999;28;20199;-65
2023/05/26 09:14:09;;;;;;;9.52;4.25;;;;;;;;;;5046192;28;20206;-67
2023/05/26 09:16:36;;;;;;;8.57;4.18;;;;;;;;;;5051572;28;20203;-66
2023/05/26 09:19:04;;;;;;;8.98;4.00;;;;;;;;;;5048328;28;20237;-66
2023/05/26 09:21:31;;;;;;;8.85;4.38;;;;;;;;;;5046097;28;20238;-65
2023/05/26 09:23:59;;;;;;;11.82;5.00;;;;;;;;;;5049450;28;20230;-63
2023/05/26 09:26:28;;;;;;;6.65;4.03;;;;;;;;;;5049753;28;20215;-63
2023/05/26 09:28:55;;;;;;;9.15;4.35;;;;;;;;;;5049290;28;20207;-64
2023/05/26 09:31:24;;;;;;;8.00;4.78;;;;;;;;;;5048863;28;20235;-63
2023/05/26 09:33:51;;;;;;;9.60;4.35;;;;;;;;;;5050952;28;20207;-63
2023/05/26 09:36:18;;;;;;;6.75;4.53;;;;;;;;;;5047166;28;20209;-62
2023/05/26 09:38:45;;;;;;;8.10;4.07;;;;;;;;;;5047315;28;20200;-63
2023/05/26 09:41:13;;;;;;;8.68;4.40;;;;;;;;;;5046490;28;20196;-65
2023/05/26 09:43:41;;;;;;;6.95;4.25;;;;;;;;;;5045364;28;20212;-63
2023/05/26 09:46:08;;;;;;;8.00;4.00;;;;;;;;;;5054997;28;20210;-63
2023/05/26 09:48:37;;;;;;;7.70;4.43;;;;;;;;;;5042313;28;20230;-63
2023/05/26 09:51:04;;;;;;;10.15;4.57;;;;;;;;;;5048274;28;20204;-63
2023/05/26 09:53:31;;;;;;;6.68;4.10;;;;;;;;;;5041037;28;20207;-62
2023/05/26 09:56:01;;;;;;;6.28;4.03;;;;;;;;;;5041637;28;20203;-64
2023/05/26 09:58:29;;;;;;;6.95;3.53;;;;;;;;;;5036522;28;20199;-62
2023/05/26 10:00:56;;;;;;;7.63;3.97;;;;;;;;;;5039019;28;20212;-62
2023/05/26 10:03:24;;;;;;;6.03;3.72;;;;;;;;;;5038913;28;20214;-63
2023/05/26 10:05:56;;;;;;;7.07;3.92;;;;;;;;;;5042582;28;20213;-63
2023/05/26 10:08:26;;;;;;;6.78;4.10;;;;;;;;;;5046493;28;20219;-63
2023/05/26 10:10:53;;;;;;;8.15;4.13;;;;;;;;;;5040305;28;20204;-64
2023/05/26 10:13:20;;;;;;;7.32;4.25;;;;;;;;;;5044963;28;20203;-62
2023/05/26 10:15:49;;;;;;;9.77;4.32;;;;;;;;;;5040473;28;20230;-63
2023/05/26 10:18:16;;;;;;;5.30;3.90;;;;;;;;;;5046908;28;20205;-63
2023/05/26 10:20:46;;;;;;;8.43;4.03;;;;;;;;;;5044443;28;20211;-63
2023/05/26 10:23:18;;;;;;;6.57;4.10;;;;;;;;;;5049478;28;20210;-63
2023/05/26 10:25:48;;;;;;;9.85;4.75;;;;;;;;;;5050319;28;20206;-63
2023/05/26 10:28:21;;;;;;;6.72;4.20;;;;;;;;;;5047697;28;20223;-64
2023/05/26 10:30:48;;;;;;;8.63;4.70;;;;;;;;;;5051188;28;20207;-63
2023/05/26 10:33:16;;;;;;;7.80;3.90;;;;;;;;;;5050613;28;20204;-63
2023/05/26 10:35:53;;;;;;;7.32;4.03;;;;;;;;;;5051852;28;20207;-62
2023/05/26 10:38:27;;;;;;;8.70;4.68;;;;;;;;;;5049621;28;20199;-63
2023/05/26 10:40:54;;;;;;;7.88;4.30;;;;;;;;;;5047884;28;20208;-63
2023/05/26 10:43:23;;;;;;;6.53;4.13;;;;;;;;;;5048216;28;20214;-65
2023/05/26 10:45:53;;;;;;;8.75;3.95;;;;;;;;;;5048871;28;20334;-65
2023/05/26 10:48:20;;;;;;;8.68;4.38;;;;;;;;;;5047640;28;20238;-64
2023/05/26 10:51:05;;;;;;;8.60;4.38;;;;;;;;;;5052530;28;20210;-62
2023/05/26 10:53:34;;;;;;;6.45;4.35;;;;;;;;;;5052846;28;20204;-63
2023/05/26 10:56:03;;;;;;;7.07;4.10;;;;;;;;;;5049625;28;20211;-62
2023/05/26 10:58:34;;;;;;;8.63;4.20;;;;;;;;;;5044744;28;20196;-65
2023/05/26 11:01:01;;;;;;;8.45;4.78;;;;;;;;;;5044772;28;20213;-65
2023/05/26 11:03:32;;;;;;;7.90;4.07;;;;;;;;;;5041483;28;20217;-64
2023/05/26 11:05:59;;;;;;;6.28;4.00;;;;;;;;;;5048918;28;20214;-64
2023/05/26 11:08:26;;;;;;;5.95;3.72;;;;;;;;;;5041089;28;20234;-64
2023/05/26 11:11:03;;;;;;;8.75;4.05;;;;;;;;;;5047628;28;20204;-64
2023/05/26 11:13:40;;;;;;;6.13;4.13;;;;;;;;;;5044467;28;20237;-63
2023/05/26 11:16:11;;;;;;;6.55;3.80;;;;;;;;;;5046660;28;20203;-64
2023/05/26 11:18:40;;;;;;;6.47;3.95;;;;;;;;;;5048240;28;20256;-63
2023/05/26 11:21:07;;;;;;;8.85;4.88;;;;;;;;;;5049349;28;20235;-62
2023/05/26 11:23:38;;;;;;;8.27;4.00;;;;;;;;;;5046793;28;20222;-63
2023/05/26 11:26:12;;;;;;;8.15;4.20;;;;;;;;;;5047447;28;20211;-64
2023/05/26 11:28:41;;;;;;;9.15;4.32;;;;;;;;;;5043662;28;20239;-65
2023/05/26 11:31:12;;;;;;;7.90;3.92;;;;;;;;;;5047864;28;20203;-65
2023/05/26 11:33:39;;;;;;;5.85;4.00;;;;;;;;;;5050263;28;20227;-62
2023/05/26 11:36:08;;;;;;;6.72;4.10;;;;;;;;;;5050424;28;20215;-63
2023/05/26 11:38:35;;;;;;;8.38;4.10;;;;;;;;;;5049070;28;20204;-64
2023/05/26 11:41:03;;;;;;;6.88;4.10;;;;;;;;;;5049777;28;20208;-65
2023/05/26 11:43:32;;;;;;;6.68;4.40;;;;;;;;;;5050963;28;20196;-65
2023/05/26 11:46:01;;;;;;;9.80;4.40;;;;;;;;;;5049886;28;20204;-63
2023/05/26 11:48:34;;;;;;;6.72;3.90;;;;;;;;;;5044347;28;20231;-64
2023/05/26 11:51:01;;;;;;;8.35;3.80;;;;;;;;;;5046666;28;20203;-63
2023/05/26 11:53:30;;;;;;;8.93;4.28;;;;;;;;;;5047113;28;20227;-63
2023/05/26 11:56:08;;;;;;;9.10;4.35;;;;;;;;;;5046548;28;20199;-62
2023/05/26 11:58:37;;;;;;;6.43;4.07;;;;;;;;;;5046934;28;20195;-63
2023/05/26 12:01:05;;;;;;;6.95;4.20;;;;;;;;;;5048070;28;20208;-62
2023/05/26 12:03:36;;;;;;;7.68;4.00;;;;;;;;;;5047890;28;20211;-62
2023/05/26 12:06:11;;;;;;;9.57;4.32;;;;;;;;;;5049208;28;20203;-62
2023/05/26 12:08:45;;;;;;;6.72;3.75;;;;;;;;;;5049988;28;20219;-61
2023/05/26 12:11:16;;;;;;;8.88;4.22;;;;;;;;;;5049728;28;20210;-63
2023/05/26 12:13:44;;;;;;;7.85;4.80;;;;;;;;;;5050419;28;20204;-63
2023/05/26 12:16:26;;;;;;;8.88;4.30;;;;;;;;;;5047558;28;20204;-63
2023/05/26 12:18:54;;;;;;;9.82;4.00;;;;;;;;;;5045024;28;20203;-62
2023/05/26 12:21:22;;;;;;;8.05;4.22;;;;;;;;;;5046399;28;20231;-62
2023/05/26 12:23:49;;;;;;;7.80;4.22;;;;;;;;;;5047907;28;20195;-62
2023/05/26 12:26:17;;;;;;;7.88;4.22;;;;;;;;;;5046495;28;20245;-62
2023/05/26 12:28:46;;;;;;;7.40;4.47;;;;;;;;;;5047236;28;20299;-62
2023/05/26 12:31:13;;;;;;;6.85;4.00;;;;;;;;;;5043882;28;20291;-63
2023/05/26 12:33:40;;;;;;;8.55;3.95;;;;;;;;;;5048267;28;20274;-62
2023/05/26 12:36:08;;;;;;;10.55;4.15;;;;;;;;;;5051308;28;20209;-62
2023/05/26 12:38:41;;;;;;;6.82;4.10;;;;;;;;;;5047171;28;20216;-62
2023/05/26 12:41:09;;;;;;;8.77;4.25;;;;;;;;;;5047263;28;20210;-62
2023/05/26 12:43:36;;;;;;;5.68;3.85;;;;;;;;;;5047633;28;20230;-62
2023/05/26 12:46:05;;;;;;;7.22;4.18;;;;;;;;;;5049576;28;20212;-62
2023/05/26 12:48:32;;;;;;;8.13;4.30;;;;;;;;;;5048781;28;20208;-63
2023/05/26 12:51:00;;;;;;;6.60;3.80;;;;;;;;;;5045774;28;20199;-63
2023/05/26 12:53:28;;;;;;;6.03;3.47;;;;;;;;;;5048303;28;20226;-62
2023/05/26 12:55:55;;;;;;;6.10;3.63;;;;;;;;;;5048239;28;20211;-62
2023/05/26 12:58:22;;;;;;;5.82;3.70;;;;;;;;;;5048268;28;20211;-63
2023/05/26 13:00:50;;;;;;;5.60;3.47;;;;;;;;;;5046181;28;20286;-62
2023/05/26 13:03:19;;;;;;;7.55;3.80;;;;;;;;;;5045909;28;20204;-62
2023/05/26 13:05:50;;;;;;;5.80;3.67;;;;;;;;;;5046533;28;20206;-62
2023/05/26 13:08:17;;;;;;;8.27;3.70;;;;;;;;;;5047489;28;20354;-62
2023/05/26 13:10:44;;;;;;;8.93;4.35;;;;;;;;;;5032107;28;20226;-63
2023/05/26 13:13:12;;;;;;;9.43;4.00;;;;;;;;;;5025904;28;20220;-61
2023/05/26 13:15:39;;;;;;;6.93;3.85;;;;;;;;;;5028291;28;20250;-62
2023/05/26 13:18:06;;;;;;;8.18;3.92;;;;;;;;;;5023990;28;20197;-62
2023/05/26 13:20:35;;;;;;;7.22;3.63;;;;;;;;;;5026233;28;20220;-64
2023/05/26 13:23:02;;;;;;;7.75;3.83;;;;;;;;;;5025794;28;20211;-63
2023/05/26 13:25:29;;;;;;;8.13;3.88;;;;;;;;;;5027052;28;20211;-63
2023/05/26 13:27:56;;;;;;;8.02;3.42;;;;;;;;;;5026241;28;20227;-62
2023/05/26 13:30:24;;;;;;;6.13;3.55;;;;;;;;;;5020335;28;20212;-63
2023/05/26 13:32:52;;;;;;;6.00;3.78;;;;;;;;;;5022683;28;20220;-63
2023/05/26 13:35:20;;;;;;;7.45;3.42;;;;;;;;;;5026533;28;20200;-63
2023/05/26 13:37:48;;;;;;;9.02;3.83;;;;;;;;;;5025410;28;20202;-63
2023/05/26 13:40:17;;;;;;;7.93;3.67;;;;;;;;;;5030463;28;20208;-64
2023/05/26 13:42:44;;;;;;;6.78;3.45;;;;;;;;;;5031908;28;20237;-64
2023/05/26 13:45:11;;;;;;;9.88;3.85;;;;;;;;;;5031390;28;20212;-64
2023/05/26 13:47:39;;;;;;;7.35;3.63;;;;;;;;;;5030407;28;20207;-63
2023/05/26 13:50:07;;;;;;;6.43;3.50;;;;;;;;;;5030651;28;20239;-64
2023/05/26 13:52:34;;;;;;;8.13;3.72;;;;;;;;;;5029714;28;20200;-63
2023/05/26 13:55:03;;;;;;;8.40;3.55;;;;;;;;;;5031350;28;20239;-62
2023/05/26 13:57:30;;;;;;;6.50;3.17;;;;;;;;;;5030762;28;20212;-62
2023/05/26 13:59:58;;;;;;;5.38;3.53;;;;;;;;;;5028834;28;20208;-62
2023/05/26 14:02:25;;;;;;;4.88;3.05;;;;;;;;;;5031955;28;20380;-63
2023/05/26 14:04:52;;;;;;;7.80;3.70;;;;;;;;;;5031552;28;20239;-62
2023/05/26 14:07:19;;;;;;;7.25;3.55;;;;;;;;;;5031598;28;20212;-62
2023/05/26 14:09:46;;;;;;;8.25;3.67;;;;;;;;;;5031806;28;20228;-62
2023/05/26 14:12:17;;;;;;;6.82;3.58;;;;;;;;;;5031742;28;20208;-63
2023/05/26 14:14:44;;;;;;;6.22;3.08;;;;;;;;;;5028352;28;20254;-62
2023/05/26 14:17:11;;;;;;;6.72;3.45;;;;;;;;;;5031485;28;20204;-62
2023/05/26 14:19:38;;;;;;;8.75;4.03;;;;;;;;;;5030830;28;20203;-62
2023/05/26 14:22:05;;;;;;;6.97;3.50;;;;;;;;;;5031744;28;20240;-63
2023/05/26 14:24:33;;;;;;;6.00;3.35;;;;;;;;;;5030452;28;20200;-62
2023/05/26 14:27:01;;;;;;;5.88;3.40;;;;;;;;;;5031913;28;20216;-63
2023/05/26 14:29:29;;;;;;;6.70;3.15;;;;;;;;;;5030327;28;20223;-62
2023/05/26 14:31:56;;;;;;;6.85;3.22;;;;;;;;;;5031540;28;20212;-62
2023/05/26 14:34:23;;;;;;;8.75;3.63;;;;;;;;;;5031810;28;20334;-63
2023/05/26 14:36:51;;;;;;;7.65;4.00;;;;;;;;;;5031547;28;20212;-64
2023/05/26 14:39:18;;;;;;;9.02;3.80;;;;;;;;;;5031029;28;20197;-64
2023/05/26 14:41:45;;;;;;;9.13;4.07;;;;;;;;;;5030994;28;20211;-64
2023/05/26 14:44:12;;;;;;;8.23;3.97;;;;;;;;;;5031411;28;20200;-63
2023/05/26 14:46:41;;;;;;;8.05;3.70;;;;;;;;;;5029579;28;20211;-64
2023/05/26 14:49:11;;;;;;;8.82;4.30;;;;;;;;;;5031206;28;20216;-64